Flight Track Log - Related Links

Times and Time Zones

All times are in EDT time to prevent confusion due to time zone crossing. See the SKW6492 flight status page for this flight to view local times or setup timezone preferences in your user account.

Time Position Orientation Groundspeed Altitude Reporting Facility
EDT Latitude Longitude Course Direction KTS MPH feet Rate Location/Type
Thu 09:37:06 PM 39.9333 -104.6833 346° North 192 221 7,200  Level Denver TRACON
Thu 09:38:06 PM 40.0000 -104.6667 11° North 237 273 9,800 2,421 Climbing Denver TRACON
Thu 09:39:00 PM 40.2230 -104.7885 347° North  Level FlightAware Approximate
Thu 09:39:00 PM 40.0500 -104.6667 360° North 255 293 11,800  Level Denver TRACON
Thu 09:40:00 PM 40.3169 -104.8167 346° North  Level FlightAware Approximate
Thu 09:40:00 PM 40.1333 -104.6833 351° North 272 313 14,000  Level Denver TRACON
Thu 09:41:00 PM 40.4103 -104.8478 346° North  Level FlightAware Approximate
Thu 09:41:00 PM 40.2000 -104.7000 349° North 257 296 15,800  Level Denver TRACON
Thu 09:42:00 PM 40.5036 -104.8790 346° North  Level FlightAware Approximate
Thu 09:42:16 PM 40.3167 -104.7267 350° North 316 364 18,100  Level Denver Center
Thu 09:43:18 PM 40.4047 -104.7511 348° North 321 369 19,300 1,355 Climbing Denver Center
Thu 09:44:20 PM 40.5022 -104.7758 349° North 330 380 20,900 1,355 Climbing Denver Center
Thu 09:45:22 PM 40.5919 -104.8014 348° North 333 383 22,100 1,161 Climbing Denver Center
Thu 09:46:24 PM 40.6933 -104.8278 349° North 340 391 23,300 1,113 Climbing Denver Center
Thu 09:47:26 PM 40.7925 -104.8550 348° North 339 390 24,400 1,065 Climbing Denver Center
Thu 09:48:28 PM 40.8850 -104.8992 340° North 348 400 25,500 919 Climbing Denver Center
Thu 09:49:30 PM 40.9764 -104.9461 339° North 350 403 26,300 629 Climbing Denver Center
Thu 09:50:32 PM 41.0644 -104.9872 341° North 356 410 26,800 629 Climbing Denver Center
Thu 09:51:34 PM 41.1703 -105.0406 339° North 363 418 27,600 823 Climbing Denver Center
Thu 09:52:36 PM 41.2603 -105.0844 340° North 361 415 28,500 968 Climbing Denver Center
Thu 09:53:38 PM 41.3636 -105.1375 339° North 355 409 29,600 1,016 Climbing Denver Center
Thu 09:54:40 PM 41.4508 -105.1792 340° North 350 403 30,600 1,016 Climbing Denver Center
Thu 09:55:42 PM 41.5503 -105.2289 339° North 342 394 31,700 677 Climbing Denver Center
Thu 09:56:44 PM 41.6239 -105.3039 323° Northwest 347 399 32,000 145 Climbing Denver Center
Thu 09:57:46 PM 41.7106 -105.3939 322° Northwest 353 406 32,000  Level Denver Center
Thu 09:58:48 PM 41.7886 -105.4767 322° Northwest 368 423 32,000  Level Denver Center
Thu 09:59:50 PM 41.8792 -105.5769 321° Northwest 377 434 32,000  Level Denver Center
Thu 10:00:52 PM 41.9600 -105.6650 321° Northwest 384 442 32,000  Level Denver Center
Thu 10:01:54 PM 42.0403 -105.7531 321° Northwest 387 445 32,000  Level Denver Center
Thu 10:02:56 PM 42.1333 -105.8556 321° Northwest 386 444 32,000  Level Denver Center
Thu 10:03:58 PM 42.2128 -105.9444 320° Northwest 387 445 32,000  Level Denver Center
Thu 10:05:00 PM 42.3083 -106.0503 321° Northwest 395 455 32,000  Level Denver Center
Thu 10:06:02 PM 42.3894 -106.1408 321° Northwest 395 455 32,000  Level Denver Center
Thu 10:07:04 PM 42.4839 -106.2472 320° Northwest 395 455 32,000  Level Denver Center
Thu 10:08:06 PM 42.5661 -106.3378 321° Northwest 396 456 32,000  Level Denver Center
Thu 10:09:07 PM 42.6614 -106.4450 320° Northwest 399 459 32,000  Level Denver Center
Thu 10:10:09 PM 42.7422 -106.5375 320° Northwest 397 457 32,000  Level Denver Center
Thu 10:11:11 PM 42.8247 -106.6289 321° Northwest 398 458 32,000  Level Denver Center
Thu 10:12:13 PM 42.9194 -106.7378 320° Northwest 400 460 32,000  Level Denver Center
Thu 10:13:14 PM 43.0017 -106.8308 320° Northwest 402 463 32,000  Level Denver Center
Thu 10:14:16 PM 43.0969 -106.9408 320° Northwest 402 463 32,000  Level Denver Center
Thu 10:14:52 PM 43.1369 -106.9883 319° Northwest 397 457 32,000  Level Salt Lake Center
Thu 10:15:54 PM 43.2325 -107.0986 320° Northwest 403 464 32,000  Level Salt Lake Center
Thu 10:16:20 PM 43.2608 -107.1300 321° Northwest 403 464 32,000  Level Denver Center
Thu 10:17:21 PM 43.3564 -107.2414 320° Northwest 403 464 32,000  Level Denver Center
Thu 10:17:57 PM 43.4100 -107.3047 319° Northwest 400 460 32,000  Level Salt Lake Center
Thu 10:18:59 PM 43.4911 -107.4014 319° Northwest 402 463 32,000  Level Salt Lake Center
Thu 10:20:00 PM 43.5725 -107.4956 320° Northwest 402 463 32,000  Level Salt Lake Center
Thu 10:21:02 PM 43.6672 -107.6061 320° Northwest 400 460 32,000  Level Salt Lake Center
Thu 10:22:04 PM 43.7475 -107.7022 319° Northwest 399 459 32,000 -439 Level Salt Lake Center
Thu 10:23:05 PM 43.8431 -107.8144 320° Northwest 402 463 31,100 -1,902 Descending Salt Lake Center
Thu 10:24:07 PM 43.9247 -107.9128 319° Northwest 406 467 28,100 -3,073 Descending Salt Lake Center
Thu 10:25:08 PM 44.0147 -108.0247 318° Northwest 388 447 24,800 -3,024 Descending Salt Lake Center
Thu 10:26:10 PM 44.0803 -108.1256 312° West 368 423 21,900 -2,780 Descending Salt Lake Center
Thu 10:27:11 PM 44.1439 -108.2253 312° West 361 415 19,100 -2,488 Descending Salt Lake Center
Thu 10:28:13 PM 44.2164 -108.3369 312° West 354 407 16,800 -2,226 Descending Salt Lake Center
Thu 10:29:15 PM 44.2814 -108.4367 312° West 355 409 14,500 -2,439 Descending Salt Lake Center
Thu 10:30:16 PM 44.3572 -108.5542 312° West 360 414 11,800 -2,146 Descending Salt Lake Center
Thu 10:31:18 PM 44.4186 -108.6475 313° West 353 406 10,100 -878 Descending Salt Lake Center
Thu 10:32:19 PM 44.4656 -108.7228 311° West 306 352 10,000 -49 Descending Salt Lake Center
Thu 10:33:21 PM 44.5131 -108.7981 312° West 251 289 10,000 -532 Level Salt Lake Center
Thu 10:34:23 PM 44.5503 -108.8514 314° West 223 257 8,900 -1,610 Descending Salt Lake Center
Thu 10:35:24 PM 44.5708 -108.9164 294° West 186 214 6,700 -2,164 Descending Salt Lake Center

Login

Don't have an account? Register now (free) for customized features, flight alerts, and more!